createdAt,value
2019-06-08T00:01:20.604Z,3.87
2019-06-08T00:06:23.924Z,3.90
2019-06-08T00:08:55.911Z,3.85
2019-06-08T00:11:28.067Z,4.05
2019-06-08T00:14:00.164Z,3.40
2019-06-08T00:16:32.347Z,3.35
2019-06-08T00:19:04.466Z,3.72
2019-06-08T00:21:36.309Z,2.83
2019-06-08T00:24:08.066Z,3.40
2019-06-08T00:26:40.057Z,3.42
2019-06-08T00:29:12.139Z,3.35
2019-06-08T00:31:43.844Z,3.22
2019-06-08T00:34:16.553Z,2.98
2019-06-08T00:36:48.271Z,3.40
2019-06-08T00:39:20.910Z,3.20
2019-06-08T00:41:53.363Z,3.20
2019-06-08T00:44:25.747Z,3.37
2019-06-08T00:46:57.837Z,3.52
2019-06-08T00:49:29.843Z,3.30
2019-06-08T00:52:01.541Z,3.33
2019-06-08T00:54:34.383Z,3.55
2019-06-08T00:57:06.554Z,3.42
2019-06-08T00:59:38.446Z,4.10
2019-06-08T01:02:10.408Z,4.15
2019-06-08T01:04:42.218Z,4.47
2019-06-08T01:07:14.466Z,3.98
2019-06-08T01:09:46.542Z,3.62
2019-06-08T01:12:18.711Z,3.27
2019-06-08T01:14:50.466Z,3.17
2019-06-08T01:17:23.021Z,3.27
2019-06-08T01:19:54.987Z,3.00
2019-06-08T01:22:27.729Z,3.30
2019-06-08T01:24:59.516Z,3.22
2019-06-08T01:27:31.565Z,3.08
2019-06-08T01:30:03.369Z,2.92
2019-06-08T01:32:35.593Z,3.20
2019-06-08T01:35:07.675Z,3.10
2019-06-08T01:37:39.470Z,3.17
2019-06-08T01:40:11.581Z,3.05
2019-06-08T01:42:43.111Z,3.35
2019-06-08T01:45:32.434Z,3.55
2019-06-08T01:48:18.737Z,3.47
2019-06-08T01:50:39.264Z,3.70
2019-06-08T01:53:10.864Z,3.55
2019-06-08T01:55:42.566Z,4.40
2019-06-08T01:58:14.273Z,4.00
2019-06-08T02:00:45.944Z,4.42
2019-06-08T02:03:17.734Z,4.40
2019-06-08T02:05:49.768Z,3.83
2019-06-08T02:08:21.715Z,3.75
2019-06-08T02:10:53.426Z,3.40
2019-06-08T02:13:26.897Z,3.62
2019-06-08T02:15:58.709Z,3.37
2019-06-08T02:18:38.876Z,3.65
2019-06-08T02:23:35.198Z,3.90
2019-06-08T02:26:07.182Z,4.00
2019-06-08T02:28:39.905Z,3.60
2019-06-08T02:31:12.190Z,3.65
2019-06-08T02:33:44.286Z,3.65
2019-06-08T02:36:16.252Z,4.05
2019-06-08T02:38:48.064Z,3.85
2019-06-08T02:41:20.135Z,3.50
2019-06-08T02:43:52.443Z,4.17
2019-06-08T02:46:24.059Z,4.45
2019-06-08T02:49:04.202Z,3.92
2019-06-08T02:51:31.152Z,3.87
2019-06-08T02:54:05.018Z,3.98
2019-06-08T02:59:09.539Z,3.58
2019-06-08T03:01:42.472Z,3.40
2019-06-08T03:04:16.873Z,3.30
2019-06-08T03:06:50.627Z,4.42
2019-06-08T03:09:24.826Z,3.52
2019-06-08T03:11:57.513Z,3.55
2019-06-08T03:14:30.987Z,3.50
2019-06-08T03:17:02.860Z,3.95
2019-06-08T03:19:35.642Z,3.40
2019-06-08T03:22:10.787Z,4.30
2019-06-08T03:24:41.616Z,3.87
2019-06-08T03:27:13.649Z,3.62
2019-06-08T03:29:45.604Z,3.30
2019-06-08T03:32:17.376Z,3.67
2019-06-08T03:34:55.726Z,3.58
2019-06-08T03:37:22.650Z,3.40
2019-06-08T03:39:54.310Z,3.30
2019-06-08T03:42:25.752Z,3.55
2019-06-08T03:44:57.504Z,3.60
2019-06-08T03:47:29.532Z,3.35
2019-06-08T03:50:04.782Z,3.33
2019-06-08T03:52:37.784Z,3.75
2019-06-08T03:55:10.416Z,4.15
2019-06-08T03:57:42.218Z,3.62
2019-06-08T04:00:14.844Z,4.00
2019-06-08T04:02:46.877Z,4.08
2019-06-08T04:05:18.533Z,4.65
2019-06-08T04:07:50.579Z,4.37
2019-06-08T04:10:22.696Z,3.80
2019-06-08T04:12:54.368Z,4.00
2019-06-08T04:15:26.253Z,3.60
2019-06-08T04:17:57.946Z,4.28
2019-06-08T04:20:29.740Z,4.28
2019-06-08T04:23:01.707Z,3.92
2019-06-08T04:25:33.466Z,4.05
2019-06-08T04:28:05.243Z,4.20
2019-06-08T04:30:38.658Z,3.60
2019-06-08T04:33:10.798Z,4.00
2019-06-08T04:35:44.451Z,3.92
2019-06-08T04:38:16.016Z,3.80
2019-06-08T04:40:48.480Z,3.95
2019-06-08T04:43:20.933Z,3.80
2019-06-08T04:45:52.458Z,4.55
2019-06-08T04:48:24.389Z,3.58
2019-06-08T04:50:56.229Z,3.45
2019-06-08T04:53:27.947Z,3.77
2019-06-08T04:55:59.473Z,3.80
2019-06-08T04:58:32.350Z,4.58
2019-06-08T05:01:05.242Z,4.58
2019-06-08T05:03:36.948Z,4.30
2019-06-08T05:06:08.385Z,4.28
2019-06-08T05:08:40.948Z,4.55
2019-06-08T05:11:12.896Z,5.12
2019-06-08T05:13:45.375Z,4.42
2019-06-08T05:16:16.872Z,5.30
2019-06-08T05:18:49.685Z,4.70
2019-06-08T05:23:58.607Z,4.70
2019-06-08T05:26:26.097Z,5.00
2019-06-08T05:28:57.714Z,5.28
2019-06-08T05:31:29.444Z,4.55
2019-06-08T05:34:01.044Z,4.50
2019-06-08T05:36:32.531Z,4.40
2019-06-08T05:39:04.857Z,5.28
2019-06-08T05:41:36.556Z,4.53
2019-06-08T05:44:08.302Z,4.85
2019-06-08T05:46:40.087Z,5.33
2019-06-08T05:49:11.915Z,4.83
2019-06-08T05:51:43.812Z,4.60
2019-06-08T05:54:15.750Z,5.08
2019-06-08T05:56:47.996Z,4.87
2019-06-08T05:59:19.786Z,5.00
2019-06-08T06:01:51.795Z,5.28
2019-06-08T06:04:23.650Z,4.97
2019-06-08T06:06:55.506Z,4.95
2019-06-08T06:09:27.357Z,4.70
2019-06-08T06:11:59.116Z,5.17
2019-06-08T06:14:30.908Z,4.60
2019-06-08T06:17:02.718Z,4.50
2019-06-08T06:19:34.512Z,4.60
2019-06-08T06:22:06.468Z,5.35
2019-06-08T06:24:38.278Z,4.80
2019-06-08T06:27:09.827Z,5.17
2019-06-08T06:29:41.662Z,5.17
2019-06-08T06:32:13.743Z,5.37
2019-06-08T06:34:45.824Z,5.27
2019-06-08T06:37:17.468Z,4.78
2019-06-08T06:39:50.071Z,4.90
2019-06-08T06:42:24.719Z,5.15
2019-06-08T06:44:55.944Z,5.33
2019-06-08T06:47:28.059Z,4.53
2019-06-08T06:49:59.918Z,4.58
2019-06-08T06:52:31.959Z,4.30
2019-06-08T06:55:03.428Z,5.08
2019-06-08T06:57:36.719Z,5.08
2019-06-08T07:00:10.457Z,5.40
2019-06-08T07:02:43.539Z,4.00
2019-06-08T07:05:15.861Z,5.17
2019-06-08T07:07:48.165Z,5.05
2019-06-08T07:10:19.938Z,4.80
2019-06-08T07:12:52.810Z,4.20
2019-06-08T07:15:30.977Z,5.33
2019-06-08T07:18:02.714Z,4.75
2019-06-08T07:20:34.569Z,4.67
2019-06-08T07:23:06.820Z,4.65
2019-06-08T07:25:38.495Z,4.45
2019-06-08T07:28:10.125Z,4.55
2019-06-08T07:30:41.765Z,4.12
2019-06-08T07:33:13.704Z,4.12
2019-06-08T07:35:45.258Z,3.80
2019-06-08T07:38:17.080Z,3.40
2019-06-08T07:40:49.954Z,4.00
2019-06-08T07:43:21.575Z,3.33
2019-06-08T07:45:54.180Z,3.65
2019-06-08T07:50:56.620Z,3.40
2019-06-08T07:53:28.377Z,3.77
2019-06-08T07:55:59.883Z,3.15
2019-06-08T07:58:31.728Z,3.00
2019-06-08T08:01:07.972Z,3.08
2019-06-08T08:03:36.805Z,3.25
2019-06-08T08:06:08.662Z,2.63
2019-06-08T08:08:40.750Z,2.90
2019-06-08T08:11:12.321Z,3.40
2019-06-08T08:13:44.306Z,2.90
2019-06-08T08:16:15.923Z,3.17
2019-06-08T08:18:48.962Z,3.25
2019-06-08T08:21:25.609Z,2.95
2019-06-08T08:23:55.933Z,2.42
2019-06-08T08:26:30.460Z,2.30
2019-06-08T08:29:03.187Z,2.50
2019-06-08T08:31:37.287Z,2.55
2019-06-08T08:34:09.104Z,2.70
2019-06-08T08:39:11.432Z,2.77
2019-06-08T08:41:44.406Z,2.47
2019-06-08T08:44:17.751Z,2.62
2019-06-08T08:46:51.412Z,2.72
2019-06-08T08:49:23.238Z,3.10
2019-06-08T08:51:56.111Z,2.60
2019-06-08T08:54:29.778Z,2.95
2019-06-08T08:57:05.104Z,2.60
2019-06-08T08:59:37.990Z,2.40
2019-06-08T09:02:11.449Z,2.62
2019-06-08T09:04:42.755Z,2.60
2019-06-08T09:07:14.845Z,2.83
2019-06-08T09:09:48.245Z,2.40
2019-06-08T09:12:19.723Z,2.17
2019-06-08T09:14:51.879Z,3.17
2019-06-08T09:17:24.828Z,2.58
2019-06-08T09:19:59.754Z,2.30
2019-06-08T09:22:31.478Z,2.40
2019-06-08T09:25:04.512Z,2.25
2019-06-08T09:27:38.269Z,2.70
2019-06-08T09:30:10.492Z,2.42
2019-06-08T09:32:42.563Z,2.70
2019-06-08T09:35:14.574Z,2.70
2019-06-08T09:37:48.409Z,2.60
2019-06-08T09:40:20.048Z,2.50
2019-06-08T09:42:57.249Z,2.47
2019-06-08T09:45:24.959Z,2.45
2019-06-08T09:47:59.648Z,3.33
2019-06-08T09:50:29.703Z,2.52
2019-06-08T09:53:14.901Z,2.60
2019-06-08T09:55:34.712Z,2.40
2019-06-08T09:58:09.472Z,3.65
2019-06-08T10:00:40.041Z,3.15
2019-06-08T10:03:12.036Z,2.90
2019-06-08T10:05:43.815Z,3.12
2019-06-08T10:08:20.229Z,2.73
2019-06-08T10:10:49.012Z,2.80
2019-06-08T10:13:21.753Z,2.60
2019-06-08T10:15:54.921Z,3.33
2019-06-08T10:18:28.485Z,2.70
2019-06-08T10:21:02.845Z,2.70
2019-06-08T10:23:34.887Z,2.60
2019-06-08T10:26:06.905Z,3.10
2019-06-08T10:28:39.151Z,2.63
2019-06-08T10:31:10.826Z,2.65
2019-06-08T10:33:42.317Z,2.37
2019-06-08T10:36:14.241Z,2.27
2019-06-08T10:38:48.010Z,2.40
2019-06-08T10:41:21.808Z,2.30
2019-06-08T10:43:52.988Z,2.27
2019-06-08T10:46:24.637Z,2.40
2019-06-08T10:48:57.393Z,2.50
2019-06-08T10:51:29.524Z,1.77
2019-06-08T10:54:02.089Z,2.20
2019-06-08T10:56:34.017Z,2.40
2019-06-08T10:59:09.972Z,2.40
2019-06-08T11:01:39.559Z,2.52
2019-06-08T11:04:11.295Z,3.02
2019-06-08T11:06:44.049Z,2.77
2019-06-08T11:09:18.719Z,2.30
2019-06-08T11:11:49.446Z,2.20
2019-06-08T11:14:22.756Z,2.10
2019-06-08T11:16:54.832Z,2.12
2019-06-08T11:19:26.795Z,1.97
2019-06-08T11:22:02.695Z,2.30
2019-06-08T11:24:32.211Z,1.92
2019-06-08T11:27:05.579Z,2.47
2019-06-08T11:29:38.323Z,2.25
2019-06-08T11:32:12.324Z,1.80
2019-06-08T11:34:43.596Z,2.15
2019-06-08T11:37:20.645Z,2.42
2019-06-08T11:39:49.168Z,2.20
2019-06-08T11:44:51.607Z,2.60
2019-06-08T11:47:23.658Z,2.25
2019-06-08T11:49:57.543Z,3.22
2019-06-08T11:52:28.891Z,2.50
2019-06-08T11:55:02.596Z,2.25
2019-06-08T11:57:37.339Z,2.50
2019-06-08T12:00:23.486Z,2.45
2019-06-08T12:02:43.358Z,2.50
2019-06-08T12:05:15.151Z,2.85
2019-06-08T12:07:48.050Z,2.50
2019-06-08T12:10:19.859Z,2.15
2019-06-08T12:12:51.576Z,2.60
2019-06-08T12:15:23.449Z,2.55
2019-06-08T12:17:55.165Z,2.30
2019-06-08T12:20:28.009Z,2.33
2019-06-08T12:22:59.740Z,2.45
2019-06-08T12:25:31.442Z,2.33
2019-06-08T12:28:02.928Z,2.33
2019-06-08T12:30:34.981Z,2.17
2019-06-08T12:33:09.377Z,2.17
2019-06-08T12:35:40.261Z,2.17
2019-06-08T12:38:13.017Z,3.10
2019-06-08T12:40:45.068Z,2.00
2019-06-08T12:43:19.846Z,2.70
2019-06-08T12:45:50.779Z,1.95
2019-06-08T12:48:25.446Z,2.47
2019-06-08T12:50:55.818Z,2.10
2019-06-08T12:53:28.284Z,2.60
2019-06-08T12:55:59.921Z,2.42
2019-06-08T12:58:31.780Z,2.42
2019-06-08T13:01:03.986Z,2.35
2019-06-08T13:03:37.712Z,2.72
2019-06-08T13:06:11.226Z,2.70
2019-06-08T13:08:42.558Z,2.00
2019-06-08T13:11:14.359Z,2.15
2019-06-08T13:13:46.113Z,2.27
2019-06-08T13:16:23.754Z,2.55
2019-06-08T13:18:51.338Z,2.40
2019-06-08T13:21:34.176Z,2.35
2019-06-08T13:23:58.114Z,2.30
2019-06-08T13:26:31.115Z,2.80
2019-06-08T13:29:03.195Z,2.52
2019-06-08T13:31:34.920Z,1.92
2019-06-08T13:34:08.220Z,2.52
2019-06-08T13:36:42.246Z,2.45
2019-06-08T14:56:05.758Z,1.95
2019-06-08T14:58:34.663Z,1.92
2019-06-08T15:01:07.932Z,2.22
2019-06-08T15:03:40.759Z,1.85
2019-06-08T15:06:12.913Z,2.40
2019-06-08T15:08:45.221Z,2.20
2019-06-08T15:11:17.892Z,2.05
2019-06-08T15:13:50.944Z,2.95
2019-06-08T15:16:23.657Z,2.55
2019-06-08T15:21:30.127Z,2.83
2019-06-08T15:24:01.140Z,3.20
2019-06-08T15:26:42.635Z,3.02
2019-06-08T15:29:10.975Z,3.00
2019-06-08T15:31:43.246Z,2.75
2019-06-08T15:34:17.797Z,3.60
2019-06-08T15:36:50.000Z,4.20
2019-06-08T15:39:23.474Z,3.90
2019-06-08T15:41:59.838Z,4.03
2019-06-08T15:44:30.729Z,4.58
2019-06-08T15:47:04.132Z,2.50
2019-06-08T15:49:38.858Z,3.15
2019-06-08T15:52:10.724Z,3.62
2019-06-08T15:54:44.325Z,5.03
2019-06-08T15:59:49.399Z,5.17
2019-06-08T16:02:21.447Z,6.15
2019-06-08T16:04:53.908Z,4.15
2019-06-08T16:07:28.596Z,4.45
2019-06-08T16:10:00.748Z,4.03
2019-06-08T16:12:33.403Z,2.70
2019-06-08T16:15:06.530Z,4.47
2019-06-08T16:17:39.098Z,2.72
2019-06-08T16:20:11.667Z,3.37
2019-06-08T16:22:43.739Z,2.75
2019-06-08T16:25:16.272Z,2.60
2019-06-08T16:27:48.579Z,3.83
2019-06-08T16:30:21.080Z,4.05
2019-06-08T16:32:53.522Z,3.00
2019-06-08T16:35:27.921Z,3.58
2019-06-08T16:37:59.522Z,3.17
2019-06-08T16:40:32.103Z,3.80
2019-06-08T16:43:05.716Z,2.30
2019-06-08T16:45:39.437Z,2.70
2019-06-08T16:48:11.384Z,2.98
2019-06-08T16:50:43.986Z,2.58
2019-06-08T16:53:16.580Z,2.90
2019-06-08T17:15:16.816Z,2.50
2019-06-08T17:17:48.391Z,2.62
2019-06-08T17:20:20.168Z,2.98
2019-06-08T17:22:52.210Z,3.05
2019-06-08T17:25:23.681Z,2.47
2019-06-08T17:27:55.372Z,2.50
2019-06-08T17:30:27.190Z,2.50
2019-06-08T17:32:59.103Z,2.67
2019-06-08T17:35:31.379Z,3.30
2019-06-08T17:38:03.543Z,2.60
2019-06-08T17:40:35.867Z,2.40
2019-06-08T17:43:07.714Z,2.40
2019-06-08T17:45:40.719Z,2.77
2019-06-08T17:48:13.009Z,2.60
2019-06-08T17:50:44.854Z,2.75
2019-06-08T17:53:16.710Z,2.42
2019-06-08T17:55:48.434Z,2.47
2019-06-08T17:58:21.692Z,2.52
2019-06-08T18:00:53.299Z,2.17
2019-06-08T18:03:25.218Z,2.40
2019-06-08T18:05:58.094Z,2.42
2019-06-08T18:11:00.091Z,2.55
2019-06-08T18:13:31.993Z,2.87
2019-06-08T18:16:03.488Z,2.40
2019-06-08T18:18:39.156Z,2.27
2019-06-08T18:21:09.830Z,2.55
2019-06-08T18:23:42.425Z,2.40
2019-06-08T18:26:17.255Z,3.00
2019-06-08T18:28:48.812Z,2.65
2019-06-08T18:31:20.413Z,2.17
2019-06-08T18:33:52.047Z,2.30
2019-06-08T18:36:23.797Z,2.30
2019-06-08T18:41:28.490Z,2.05
2019-06-08T18:44:00.262Z,2.52
2019-06-08T18:46:32.666Z,2.45
2019-06-08T18:49:04.563Z,2.35
2019-06-08T18:51:38.184Z,3.00
2019-06-08T18:54:14.666Z,2.72
2019-06-08T18:56:45.080Z,2.30
2019-06-08T18:59:18.347Z,2.77
2019-06-08T19:01:50.118Z,2.92
2019-06-08T19:04:22.032Z,3.08
2019-06-08T19:06:54.561Z,3.75
2019-06-08T19:09:26.791Z,4.40
2019-06-08T19:11:58.519Z,3.45
2019-06-08T19:14:30.325Z,2.90
2019-06-08T19:17:01.914Z,3.10
2019-06-08T19:19:33.499Z,2.92
2019-06-08T19:22:05.334Z,2.90
2019-06-08T19:24:40.803Z,3.15
2019-06-08T19:27:11.769Z,3.37
2019-06-08T19:29:44.193Z,3.60
2019-06-08T19:32:17.623Z,3.22
2019-06-08T19:34:53.969Z,3.25
2019-06-08T19:37:23.161Z,3.35
2019-06-08T19:39:57.565Z,3.47
2019-06-08T19:42:40.008Z,2.90
2019-06-08T19:45:05.487Z,3.30
2019-06-08T19:47:36.538Z,3.10
2019-06-08T19:50:08.656Z,3.10
2019-06-08T19:52:43.724Z,2.98
2019-06-08T19:55:13.774Z,3.15
2019-06-08T19:57:46.373Z,3.37
2019-06-08T20:02:53.273Z,2.95
2019-06-08T20:05:23.718Z,4.95
2019-06-08T20:07:57.523Z,3.55
2019-06-08T20:10:28.669Z,3.55
2019-06-08T20:13:00.782Z,3.45
2019-06-08T20:15:33.750Z,3.60
2019-06-08T20:18:05.774Z,3.45
2019-06-08T20:20:38.206Z,3.60
2019-06-08T20:23:10.176Z,3.58
2019-06-08T20:25:43.122Z,3.80
2019-06-08T20:30:46.690Z,3.75
2019-06-08T20:33:18.664Z,3.83
2019-06-08T20:35:51.879Z,4.10
2019-06-08T20:38:35.257Z,4.15
2019-06-08T20:40:58.063Z,3.35
2019-06-08T20:43:29.969Z,3.67
2019-06-08T20:46:02.156Z,3.90
2019-06-08T20:48:33.996Z,3.93
2019-06-08T20:51:07.814Z,5.78
2019-06-08T20:53:39.282Z,4.30
2019-06-08T20:56:10.960Z,4.40
2019-06-08T20:58:43.191Z,4.05
2019-06-08T21:01:14.888Z,3.85
2019-06-08T21:03:48.548Z,3.95
2019-06-08T21:06:20.215Z,3.90
2019-06-08T21:08:53.228Z,4.28
2019-06-08T21:11:27.153Z,4.03
2019-06-08T21:13:58.726Z,3.80
2019-06-08T21:16:30.558Z,4.00
2019-06-08T21:19:02.336Z,4.25
2019-06-08T21:21:34.376Z,3.35
2019-06-08T21:24:08.997Z,3.87
2019-06-08T21:26:40.576Z,3.83
2019-06-08T21:29:12.378Z,3.75
2019-06-08T21:31:44.152Z,3.77
2019-06-08T21:34:18.116Z,3.92
2019-06-08T21:39:22.282Z,3.92
2019-06-08T21:41:58.532Z,4.03
2019-06-08T21:44:28.124Z,3.52
2019-06-08T21:47:01.531Z,3.70
2019-06-08T21:49:33.598Z,4.05
2019-06-08T21:52:07.323Z,4.12
2019-06-08T21:54:38.850Z,3.85
2019-06-08T21:57:10.552Z,4.12
2019-06-08T21:59:42.473Z,3.98
2019-06-08T22:02:14.181Z,3.52
2019-06-08T22:04:47.780Z,3.77
2019-06-08T22:07:19.398Z,4.05
2019-06-08T22:09:52.017Z,4.20
2019-06-08T22:12:24.809Z,4.03
2019-06-08T22:14:59.002Z,4.35
2019-06-08T22:17:30.059Z,4.03
2019-06-08T22:20:01.599Z,4.50
2019-06-08T22:22:33.347Z,4.28
2019-06-08T22:25:04.946Z,3.80
2019-06-08T22:27:38.149Z,4.45
2019-06-08T22:30:18.451Z,4.35
2019-06-08T22:32:44.304Z,4.58
2019-06-08T22:35:16.462Z,3.85
2019-06-08T22:37:48.164Z,4.80
2019-06-08T22:40:19.787Z,4.75
2019-06-08T22:42:51.121Z,4.50
2019-06-08T22:45:22.901Z,4.08
2019-06-08T22:47:54.537Z,4.08
2019-06-08T22:50:27.544Z,4.65
2019-06-08T22:55:31.861Z,4.65
2019-06-08T22:58:04.672Z,4.78
2019-06-08T23:00:51.368Z,4.37
2019-06-08T23:03:10.312Z,4.20
2019-06-08T23:05:41.974Z,4.30
2019-06-08T23:08:13.658Z,4.12
2019-06-08T23:10:45.481Z,4.08
2019-06-08T23:13:17.923Z,4.50
2019-06-08T23:15:49.822Z,4.45
2019-06-08T23:18:21.374Z,4.65
2019-06-08T23:20:58.253Z,4.17
2019-06-08T23:23:30.235Z,3.77
2019-06-08T23:26:03.715Z,4.35
2019-06-08T23:28:37.766Z,5.00
2019-06-08T23:31:21.032Z,4.37
2019-06-08T23:33:44.511Z,3.80
2019-06-08T23:36:46.704Z,4.25
2019-06-08T23:38:49.954Z,4.25
2019-06-08T23:41:21.925Z,4.50
2019-06-08T23:43:53.618Z,4.25
2019-06-08T23:46:27.365Z,4.58
2019-06-08T23:49:01.871Z,4.42
2019-06-08T23:51:32.981Z,4.37
2019-06-08T23:54:06.428Z,4.80
2019-06-08T23:56:38.345Z,4.45
2019-06-08T23:59:10.371Z,4.10
